This is the latest recevied weather packets stored in our database for station/object KS4XQ. If no packets are shown the sender has not sent any weather packets the latest 10 day(s).
| Time | Temp. | Humidity | Pressure | Rain* | Wind** | Luminosity | Snow |
|---|---|---|---|---|---|---|---|
| 1777326304 | 19.44° C | 59% | 1020.4 hPa | 0 mm | - | - | - |
| 1777324801 | 20° C | 59% | 1020.5 hPa | 0 mm | - | - | - |
| 1777322401 | 20° C | 59% | 1020.6 hPa | 0 mm | - | - | - |
| 1777321803 | 20.56° C | 58% | 1020.5 hPa | 0 mm | - | - | - |
| 1777320901 | 21.11° C | 60% | 1020.6 hPa | 0 mm | - | - | - |
| 1777319703 | 21.11° C | 58% | 1020.6 hPa | 0 mm | - | - | - |
| 1777318203 | 21.11° C | 54% | 1021.4 hPa | 0 mm | - | - | - |
| 1777315803 | 20° C | 60% | 1021.9 hPa | 0 mm | - | - | - |
| 1777315501 | 19.44° C | 60% | 1021.9 hPa | 0 mm | - | - | - |
| 1777314003 | 20.56° C | 58% | 1022 hPa | 0 mm | - | - | - |
| 1777310102 | 18.89° C | 64% | 1022.4 hPa | 0 mm | - | - | - |
| 1777309801 | 18.89° C | 65% | 1022.5 hPa | 0 mm | - | - | - |
| 1777309501 | 18.89° C | 61% | 1022.5 hPa | 0 mm | - | - | - |
| 1777308003 | 17.22° C | 66% | 1022.8 hPa | 0 mm | - | - | - |
| 1777307402 | 17.22° C | 67% | 1023 hPa | 0 mm | - | - | - |
| 1777306502 | 17.22° C | 67% | 1023.3 hPa | 0 mm | - | - | - |
| 1777305605 | 17.22° C | 66% | 1023.4 hPa | 0 mm | - | - | - |
| 1777305001 | 16.67° C | 67% | 1023.3 hPa | 0 mm | - | - | - |
| 1777304401 | 16.67° C | 69% | 1023.2 hPa | 0 mm | - | - | - |
| 1777303803 | 16.11° C | 71% | 1022.9 hPa | 0 mm | - | - | - |
| 1777300202 | 13.89° C | 77% | 1023 hPa | 0 mm | - | - | - |
| 1777299603 | 13.89° C | 75% | 1023 hPa | 0 mm | - | - | - |
| 1777296301 | 13.33° C | 75% | 1022.5 hPa | 0 mm | - | - | - |
| 1777292702 | 12.78° C | 79% | 1022 hPa | 0 mm | - | - | - |
| 1777292100 | 12.22° C | 79% | 1022 hPa | 0 mm | - | - | - |
* Rain latest hour (hover to see other rain measurements)
** Current wind speed in m/s (hover to see current wind gust speed)